createdAt,value
2023-04-04T00:00:29.746Z,99653.19
2023-04-04T00:02:56.613Z,99651.41
2023-04-04T00:05:24.112Z,99645.22
2023-04-04T00:07:50.773Z,99642.78
2023-04-04T00:10:17.784Z,99641.06
2023-04-04T00:12:44.426Z,99647.00
2023-04-04T00:15:11.332Z,99653.91
2023-04-04T00:17:37.994Z,99640.16
2023-04-04T00:20:05.018Z,99640.97
2023-04-04T00:22:31.844Z,99630.50
2023-04-04T00:24:59.269Z,99634.03
2023-04-04T00:27:26.372Z,99634.03
2023-04-04T00:29:52.993Z,99637.44
2023-04-04T00:32:19.814Z,99626.28
2023-04-04T00:34:46.707Z,99624.53
2023-04-04T00:37:13.389Z,99624.66
2023-04-04T00:39:40.281Z,99623.88
2023-04-04T00:42:07.532Z,99629.88
2023-04-04T00:44:36.531Z,99626.41
2023-04-04T00:47:04.750Z,99625.59
2023-04-04T00:49:31.326Z,99619.56
2023-04-04T00:51:58.297Z,99622.16
2023-04-04T00:54:25.385Z,99616.94
2023-04-04T00:56:55.719Z,99618.59
2023-04-04T00:59:23.982Z,99608.28
2023-04-04T01:01:51.065Z,99616.03
2023-04-04T01:04:17.918Z,99609.16
2023-04-04T01:06:45.890Z,99605.56
2023-04-04T01:09:13.246Z,99618.47
2023-04-04T01:11:39.939Z,99611.66
2023-04-04T01:14:06.562Z,99609.84
2023-04-04T01:16:33.394Z,99613.22
2023-04-04T01:19:00.283Z,99608.81
2023-04-04T01:21:27.599Z,99604.28
2023-04-04T01:24:04.710Z,99619.69
2023-04-04T01:26:31.859Z,99616.88
2023-04-04T01:28:59.621Z,99615.78
2023-04-04T01:31:30.101Z,99616.53
2023-04-04T01:34:38.338Z,99614.88
2023-04-04T01:37:29.085Z,99614.88
2023-04-04T01:40:21.993Z,99610.19
2023-04-04T01:42:49.661Z,99612.59
2023-04-04T01:45:16.369Z,99610.50
2023-04-04T01:47:43.745Z,99606.72
2023-04-04T01:50:11.879Z,99602.84
2023-04-04T01:52:38.555Z,99599.25
2023-04-04T01:55:05.615Z,99600.03
2023-04-04T01:57:32.250Z,99603.22
2023-04-04T01:59:58.823Z,99596.19
2023-04-04T02:02:25.627Z,99595.44
2023-04-04T02:04:52.415Z,99596.63
2023-04-04T02:07:19.582Z,99598.69
2023-04-04T02:09:46.471Z,99592.66
2023-04-04T02:12:13.556Z,99601.22
2023-04-04T02:14:41.058Z,99595.28
2023-04-04T02:17:07.820Z,99593.53
2023-04-04T02:19:34.441Z,99595.28
2023-04-04T02:22:01.111Z,99593.75
2023-04-04T02:24:27.823Z,99592.31
2023-04-04T02:26:54.492Z,99585.50
2023-04-04T02:29:21.142Z,99576.88
2023-04-04T02:31:48.278Z,99573.44
2023-04-04T02:34:14.894Z,99573.28
2023-04-04T02:36:41.582Z,99575.78
2023-04-04T02:39:08.187Z,99581.94
2023-04-04T02:41:34.823Z,99582.56
2023-04-04T02:44:01.416Z,99574.84
2023-04-04T02:46:28.177Z,99579.00
2023-04-04T02:48:54.681Z,99572.97
2023-04-04T02:51:21.473Z,99572.56
2023-04-04T02:53:48.129Z,99569.84
2023-04-04T02:56:14.708Z,99565.16
2023-04-04T02:58:41.676Z,99565.91
2023-04-04T03:01:09.218Z,99563.00
2023-04-04T03:03:36.182Z,99571.13
2023-04-04T03:06:03.015Z,99554.41
2023-04-04T03:08:29.592Z,99558.38
2023-04-04T03:10:56.541Z,99558.13
2023-04-04T03:13:23.056Z,99550.94
2023-04-04T03:15:49.834Z,99550.63
2023-04-04T03:18:16.747Z,99551.53
2023-04-04T03:20:43.423Z,99546.69
2023-04-04T03:23:10.005Z,99550.28
2023-04-04T03:25:36.592Z,99547.25
2023-04-04T03:28:12.735Z,99554.06
2023-04-04T03:30:40.212Z,99543.13
2023-04-04T03:33:10.504Z,99545.84
2023-04-04T03:35:41.251Z,99539.16
2023-04-04T03:38:09.602Z,99539.72
2023-04-04T03:40:36.884Z,99538.78
2023-04-04T03:43:03.590Z,99540.34
2023-04-04T03:45:30.551Z,99530.94
2023-04-04T03:47:57.313Z,99542.66
2023-04-04T03:50:23.972Z,99534.78
2023-04-04T03:52:50.980Z,99543.25
2023-04-04T03:55:17.827Z,99535.44
2023-04-04T03:57:44.716Z,99532.31
2023-04-04T04:00:12.401Z,99537.38
2023-04-04T04:02:39.395Z,99536.47
2023-04-04T04:05:06.308Z,99535.47
2023-04-04T04:07:32.985Z,99530.19
2023-04-04T04:09:59.590Z,99538.59
2023-04-04T04:12:26.465Z,99530.88
2023-04-04T04:14:53.190Z,99535.09
2023-04-04T04:17:20.047Z,99541.06
2023-04-04T04:19:46.907Z,99531.31
2023-04-04T04:22:13.525Z,99532.31
2023-04-04T04:24:40.286Z,99537.09
2023-04-04T04:27:07.271Z,99531.81
2023-04-04T04:29:33.825Z,99534.09
2023-04-04T04:32:01.928Z,99533.25
2023-04-04T04:34:28.670Z,99535.84
2023-04-04T04:36:55.388Z,99533.81
2023-04-04T04:39:22.233Z,99541.50
2023-04-04T04:41:48.963Z,99526.78
2023-04-04T04:44:15.687Z,99534.59
2023-04-04T04:46:42.452Z,99527.06
2023-04-04T04:49:09.119Z,99533.59
2023-04-04T04:51:35.849Z,99528.16
2023-04-04T04:54:02.444Z,99533.72
2023-04-04T04:56:29.187Z,99531.19
2023-04-04T04:58:55.786Z,99532.94
2023-04-04T05:01:22.664Z,99534.09
2023-04-04T05:03:51.210Z,99536.22
2023-04-04T05:06:18.719Z,99541.00
2023-04-04T05:08:45.409Z,99530.06
2023-04-04T05:11:12.004Z,99530.44
2023-04-04T05:13:38.619Z,99539.38
2023-04-04T05:16:05.509Z,99535.31
2023-04-04T05:18:32.205Z,99533.91
2023-04-04T05:20:59.074Z,99541.38
2023-04-04T05:23:25.797Z,99541.28
2023-04-04T05:25:53.604Z,99539.25
2023-04-04T05:28:21.122Z,99536.41
2023-04-04T05:30:47.950Z,99546.38
2023-04-04T05:33:14.808Z,99548.38
2023-04-04T05:35:41.975Z,99540.06
2023-04-04T05:38:08.835Z,99546.66
2023-04-04T05:40:35.642Z,99545.22
2023-04-04T05:43:04.461Z,99546.38
2023-04-04T05:45:32.006Z,99546.88
2023-04-04T05:47:58.867Z,99548.16
2023-04-04T05:50:25.979Z,99553.72
2023-04-04T05:52:56.124Z,99555.50
2023-04-04T05:55:23.119Z,99559.81
2023-04-04T05:57:51.244Z,99554.47
2023-04-04T06:00:19.659Z,99567.69
2023-04-04T06:02:46.660Z,99563.03
2023-04-04T06:05:13.311Z,99562.28
2023-04-04T06:07:40.283Z,99562.44
2023-04-04T06:10:07.978Z,99565.69
2023-04-04T06:12:34.652Z,99561.50
2023-04-04T06:15:01.568Z,99567.75
2023-04-04T06:17:28.355Z,99575.66
2023-04-04T06:19:55.523Z,99571.59
2023-04-04T06:22:22.332Z,99567.50
2023-04-04T06:24:48.975Z,99571.09
2023-04-04T06:27:16.019Z,99573.69
2023-04-04T06:29:43.072Z,99572.94
2023-04-04T06:32:09.808Z,99573.31
2023-04-04T06:34:36.465Z,99578.75
2023-04-04T06:37:03.710Z,99574.03
2023-04-04T06:39:31.800Z,99580.63
2023-04-04T06:41:58.432Z,99576.25
2023-04-04T06:44:25.336Z,99574.56
2023-04-04T06:46:52.282Z,99572.56
2023-04-04T06:49:18.851Z,99576.47
2023-04-04T06:51:45.732Z,99581.25
2023-04-04T06:54:12.430Z,99582.19
2023-04-04T06:56:39.090Z,99580.16
2023-04-04T06:59:05.979Z,99583.44
2023-04-04T07:01:35.738Z,99577.06
2023-04-04T07:04:02.953Z,99583.75
2023-04-04T07:06:29.953Z,99588.75
2023-04-04T07:08:57.005Z,99591.50
2023-04-04T07:11:27.362Z,99591.25
2023-04-04T07:13:54.244Z,99590.38
2023-04-04T07:16:21.372Z,99589.97
2023-04-04T07:18:48.138Z,99589.53
2023-04-04T07:21:14.924Z,99585.91
2023-04-04T07:23:41.572Z,99578.41
2023-04-04T07:26:08.352Z,99581.31
2023-04-04T07:28:35.144Z,99582.50
2023-04-04T07:31:02.264Z,99574.03
2023-04-04T07:33:29.302Z,99568.31
2023-04-04T07:35:55.942Z,99575.41
2023-04-04T07:38:22.933Z,99572.69
2023-04-04T07:40:50.781Z,99576.75
2023-04-04T07:43:17.478Z,99574.34
2023-04-04T07:45:44.320Z,99569.84
2023-04-04T07:48:11.276Z,99580.22
2023-04-04T07:50:38.323Z,99569.47
2023-04-04T07:53:05.259Z,99571.78
2023-04-04T07:55:32.005Z,99570.69
2023-04-04T07:57:58.862Z,99568.97
2023-04-04T08:00:26.724Z,99576.69
2023-04-04T08:02:55.238Z,99568.72
2023-04-04T08:05:22.427Z,99568.09
2023-04-04T08:07:49.213Z,99567.34
2023-04-04T08:10:19.414Z,99572.50
2023-04-04T08:12:46.205Z,99564.59
2023-04-04T08:15:13.330Z,99564.13
2023-04-04T08:17:40.404Z,99567.22
2023-04-04T08:20:07.944Z,99565.22
2023-04-04T08:22:34.497Z,99573.25
2023-04-04T08:25:01.456Z,99567.94
2023-04-04T08:27:28.127Z,99565.28
2023-04-04T08:29:54.843Z,99566.78
2023-04-04T08:32:22.376Z,99569.50
2023-04-04T08:34:49.969Z,99566.53
2023-04-04T08:37:17.221Z,99574.28
2023-04-04T08:39:44.235Z,99576.25
2023-04-04T08:42:12.187Z,99567.53
2023-04-04T08:44:42.215Z,99570.13
2023-04-04T08:47:10.981Z,99576.34
2023-04-04T08:49:41.489Z,99584.81
2023-04-04T08:52:11.801Z,99582.81
2023-04-04T08:54:40.990Z,99580.00
2023-04-04T08:57:08.679Z,99584.25
2023-04-04T08:59:36.118Z,99579.75
2023-04-04T09:02:06.459Z,99576.31
2023-04-04T09:04:33.513Z,99585.88
2023-04-04T09:07:02.706Z,99578.06
2023-04-04T09:09:32.403Z,99594.34
2023-04-04T09:12:02.526Z,99587.50
2023-04-04T09:14:34.263Z,99592.88
2023-04-04T09:17:01.058Z,99595.34
2023-04-04T09:19:27.924Z,99587.25
2023-04-04T09:21:54.700Z,99582.50
2023-04-04T09:24:21.409Z,99583.22
2023-04-04T09:26:53.494Z,99582.50
2023-04-04T09:29:21.665Z,99584.06
2023-04-04T09:31:49.802Z,99580.50
2023-04-04T09:34:19.018Z,99592.06
2023-04-04T09:36:46.451Z,99582.72
2023-04-04T09:39:16.763Z,99591.78
2023-04-04T09:41:46.232Z,99587.06
2023-04-04T09:44:13.924Z,99584.72
2023-04-04T09:46:40.990Z,99586.06
2023-04-04T09:49:13.363Z,99586.91
2023-04-04T09:51:42.731Z,99581.25
2023-04-04T09:54:28.820Z,99581.31
2023-04-04T09:56:56.638Z,99586.44
2023-04-04T09:59:24.451Z,99584.75
2023-04-04T10:01:53.718Z,99579.78
2023-04-04T10:04:20.662Z,99587.22
2023-04-04T10:06:47.370Z,99581.16
2023-04-04T10:09:16.360Z,99583.88
2023-04-04T10:11:43.188Z,99582.13
2023-04-04T10:14:09.987Z,99589.13
2023-04-04T10:16:38.120Z,99572.03
2023-04-04T10:19:08.142Z,99573.84
2023-04-04T10:21:35.879Z,99570.13
2023-04-04T10:24:09.392Z,99576.25
2023-04-04T10:26:37.222Z,99572.09
2023-04-04T10:29:06.249Z,99578.47
2023-04-04T10:31:35.272Z,99578.34
2023-04-04T10:34:22.205Z,99565.50
2023-04-04T10:36:58.274Z,99573.41
2023-04-04T10:39:54.064Z,99573.16
2023-04-04T10:42:21.188Z,99566.25
2023-04-04T10:44:47.837Z,99555.56
2023-04-04T10:47:17.894Z,99555.44
2023-04-04T10:49:46.554Z,99547.75
2023-04-04T10:52:18.261Z,99550.00
2023-04-04T10:54:45.949Z,99547.31
2023-04-04T10:57:14.339Z,99544.31
2023-04-04T11:00:14.666Z,99543.13
2023-04-04T11:02:53.559Z,99534.66
2023-04-04T11:05:27.620Z,99539.06
2023-04-04T11:08:09.821Z,99539.16
2023-04-04T11:10:37.619Z,99537.03
2023-04-04T11:13:18.868Z,99518.56
2023-04-04T11:16:05.587Z,99519.56
2023-04-04T11:18:34.009Z,99513.56
2023-04-04T11:21:07.580Z,99516.25
2023-04-04T11:23:49.225Z,99507.56
2023-04-04T11:26:30.845Z,99507.47
2023-04-04T11:29:02.291Z,99513.16
2023-04-04T11:31:34.074Z,99504.66
2023-04-04T11:34:08.895Z,99506.63
2023-04-04T11:36:35.524Z,99505.59
2023-04-04T11:39:07.088Z,99507.16
2023-04-04T11:41:52.712Z,99505.41
2023-04-04T11:44:21.522Z,99511.25
2023-04-04T11:46:51.120Z,99509.16
2023-04-04T11:49:18.676Z,99502.31
2023-04-04T11:51:46.028Z,99505.00
2023-04-04T11:54:17.339Z,99502.28
2023-04-04T11:56:45.068Z,99511.66
2023-04-04T11:59:23.015Z,99502.28
2023-04-04T12:01:49.908Z,99500.97
2023-04-04T12:04:21.558Z,99503.03
2023-04-04T12:06:51.667Z,99492.66
2023-04-04T12:09:19.414Z,99490.06
2023-04-04T12:11:47.319Z,99481.19
2023-04-04T12:14:22.080Z,99477.63
2023-04-04T12:16:50.866Z,99475.63
2023-04-04T12:19:18.652Z,99486.09
2023-04-04T12:21:49.790Z,99482.44
2023-04-04T12:24:16.982Z,99487.09
2023-04-04T12:26:46.406Z,99479.44
2023-04-04T12:29:16.060Z,99476.03
2023-04-04T12:31:44.765Z,99473.53
2023-04-04T12:34:19.411Z,99473.53
2023-04-04T12:36:51.727Z,99468.88
2023-04-04T12:39:20.542Z,99458.63
2023-04-04T12:42:09.129Z,99460.34
2023-04-04T12:44:37.919Z,99456.78
2023-04-04T12:47:07.361Z,99453.25
2023-04-04T12:49:42.919Z,99449.69
2023-04-04T12:52:26.602Z,99454.75
2023-04-04T12:55:06.792Z,99451.84
2023-04-04T12:57:35.515Z,99452.50
2023-04-04T13:00:04.706Z,99447.31
2023-04-04T13:02:31.475Z,99450.84
2023-04-04T13:04:58.959Z,99447.63
2023-04-04T13:07:32.643Z,99447.53
2023-04-04T13:10:04.117Z,99438.84
2023-04-04T13:13:02.587Z,99430.63
2023-04-04T13:15:51.302Z,99437.66
2023-04-04T13:18:23.937Z,99428.81
2023-04-04T13:20:55.223Z,99423.66
2023-04-04T13:23:23.027Z,99415.00
2023-04-04T13:25:49.917Z,99406.25
2023-04-04T13:28:17.066Z,99414.94
2023-04-04T13:30:49.068Z,99410.44
2023-04-04T13:33:17.676Z,99405.00
2023-04-04T13:35:46.108Z,99415.41
2023-04-04T13:38:13.078Z,99423.81
2023-04-04T13:40:39.968Z,99415.66
2023-04-04T13:43:06.934Z,99402.84
2023-04-04T13:45:34.716Z,99397.94
2023-04-04T13:48:02.383Z,99393.63
2023-04-04T13:50:29.334Z,99391.09
2023-04-04T13:52:56.824Z,99388.63
2023-04-04T13:55:23.663Z,99387.78
2023-04-04T13:57:50.520Z,99386.94
2023-04-04T14:00:17.654Z,99396.44
2023-04-04T14:02:44.479Z,99385.78
2023-04-04T14:05:11.969Z,99394.75
2023-04-04T14:07:38.868Z,99393.25
2023-04-04T14:10:06.155Z,99384.56
2023-04-04T14:12:33.023Z,99389.66
2023-04-04T14:14:59.696Z,99385.44
2023-04-04T14:17:26.624Z,99375.78
2023-04-04T14:19:53.281Z,99377.78
2023-04-04T14:22:20.006Z,99380.50
2023-04-04T14:24:47.028Z,99373.72
2023-04-04T14:27:13.682Z,99372.88
2023-04-04T14:29:40.655Z,99375.41
2023-04-04T14:32:07.276Z,99367.66
2023-04-04T14:34:33.921Z,99359.75
2023-04-04T14:37:00.852Z,99369.28
2023-04-04T14:39:28.170Z,99377.78
2023-04-04T14:41:55.062Z,99371.63
2023-04-04T14:44:22.122Z,99367.72
2023-04-04T14:46:52.858Z,99363.16
2023-04-04T14:49:19.675Z,99365.78
2023-04-04T14:51:46.515Z,99366.78
2023-04-04T14:54:13.267Z,99356.03
2023-04-04T14:56:39.953Z,99368.91
2023-04-04T14:59:07.173Z,99361.19
2023-04-04T15:01:34.081Z,99359.25
2023-04-04T15:04:00.894Z,99361.97
2023-04-04T15:06:27.825Z,99357.69
2023-04-04T15:08:54.651Z,99345.47
2023-04-04T15:11:21.783Z,99346.16
2023-04-04T15:13:48.591Z,99348.06
2023-04-04T15:16:17.951Z,99354.28
2023-04-04T15:18:44.833Z,99353.09
2023-04-04T15:21:11.552Z,99342.13
2023-04-04T15:23:38.196Z,99338.66
2023-04-04T15:26:06.510Z,99344.84
2023-04-04T15:28:33.613Z,99344.09
2023-04-04T15:31:03.581Z,99334.59
2023-04-04T15:33:30.437Z,99333.50
2023-04-04T15:35:57.212Z,99327.44
2023-04-04T15:38:23.916Z,99325.69
2023-04-04T15:40:50.696Z,99329.25
2023-04-04T15:43:17.376Z,99327.31
2023-04-04T15:45:44.042Z,99321.22
2023-04-04T15:48:10.746Z,99326.50
2023-04-04T15:50:37.329Z,99319.38
2023-04-04T15:53:04.014Z,99319.28
2023-04-04T15:55:30.717Z,99319.31
2023-04-04T15:57:57.306Z,99312.25
2023-04-04T16:00:24.253Z,99311.25
2023-04-04T16:02:51.330Z,99316.22
2023-04-04T16:05:18.334Z,99312.84
2023-04-04T16:07:44.979Z,99320.78
2023-04-04T16:10:11.853Z,99314.84
2023-04-04T16:12:38.452Z,99314.84
2023-04-04T16:15:07.194Z,99308.81
2023-04-04T16:17:34.042Z,99303.63
2023-04-04T16:20:01.209Z,99299.38
2023-04-04T16:22:27.920Z,99310.63
2023-04-04T16:24:54.515Z,99310.53
2023-04-04T16:27:21.342Z,99318.97
2023-04-04T16:29:47.870Z,99309.44
2023-04-04T16:32:14.717Z,99312.66
2023-04-04T16:34:41.467Z,99306.47
2023-04-04T16:37:10.033Z,99310.75
2023-04-04T16:39:36.721Z,99313.78
2023-04-04T16:42:03.690Z,99313.00
2023-04-04T16:44:30.418Z,99307.72
2023-04-04T16:46:57.251Z,99312.06
2023-04-04T16:49:24.088Z,99311.13
2023-04-04T16:51:50.719Z,99305.84
2023-04-04T16:54:17.377Z,99299.78
2023-04-04T16:56:44.294Z,99297.88
2023-04-04T16:59:11.424Z,99297.78
2023-04-04T17:01:38.623Z,99290.81
2023-04-04T17:04:06.036Z,99293.22
2023-04-04T17:06:33.497Z,99298.38
2023-04-04T17:09:00.163Z,99295.81
2023-04-04T17:11:28.262Z,99294.84
2023-04-04T17:13:55.102Z,99288.84
2023-04-04T17:16:23.587Z,99287.00
2023-04-04T17:18:50.408Z,99287.88
2023-04-04T17:21:17.716Z,99279.88
2023-04-04T17:23:44.429Z,99285.13
2023-04-04T17:26:11.227Z,99282.31
2023-04-04T17:28:37.902Z,99281.41
2023-04-04T17:31:04.865Z,99284.63
2023-04-04T17:33:33.213Z,99291.53
2023-04-04T17:35:59.986Z,99287.03
2023-04-04T17:38:26.901Z,99287.69
2023-04-04T17:40:54.074Z,99287.63
2023-04-04T17:43:21.356Z,99279.59
2023-04-04T17:45:48.360Z,99284.72
2023-04-04T17:48:15.081Z,99282.91
2023-04-04T17:50:43.240Z,99286.25
2023-04-04T17:53:10.086Z,99281.72
2023-04-04T17:55:37.101Z,99287.63
2023-04-04T17:58:03.876Z,99283.94
2023-04-04T18:00:30.949Z,99288.91
2023-04-04T18:02:57.683Z,99293.16
2023-04-04T18:05:24.599Z,99297.41
2023-04-04T18:07:51.386Z,99288.28
2023-04-04T18:10:18.211Z,99293.22
2023-04-04T18:12:45.639Z,99291.38
2023-04-04T18:15:12.998Z,99298.84
2023-04-04T18:17:40.273Z,99299.66
2023-04-04T18:20:08.940Z,99299.56
2023-04-04T18:22:35.784Z,99296.78
2023-04-04T18:25:02.657Z,99295.63
2023-04-04T18:27:29.304Z,99296.47
2023-04-04T18:29:56.072Z,99303.97
2023-04-04T18:32:25.895Z,99297.22
2023-04-04T18:34:52.574Z,99307.06
2023-04-04T18:37:19.165Z,99304.28
2023-04-04T18:39:45.863Z,99303.03
2023-04-04T18:42:12.564Z,99312.66
2023-04-04T18:44:39.674Z,99312.03
2023-04-04T18:47:08.391Z,99302.59
2023-04-04T18:49:35.776Z,99309.19
2023-04-04T18:52:02.550Z,99302.44
2023-04-04T18:54:29.280Z,99312.81
2023-04-04T18:56:57.766Z,99309.47
2023-04-04T18:59:24.958Z,99300.03
2023-04-04T19:01:54.631Z,99299.16
2023-04-04T19:04:21.959Z,99299.97
2023-04-04T19:06:53.823Z,99308.59
2023-04-04T19:09:21.514Z,99302.28
2023-04-04T19:11:49.333Z,99303.03
2023-04-04T19:14:17.345Z,99312.53
2023-04-04T19:16:43.992Z,99306.66
2023-04-04T19:19:12.367Z,99312.06
2023-04-04T19:21:38.964Z,99310.00
2023-04-04T19:24:06.658Z,99302.94
2023-04-04T19:26:33.332Z,99307.94
2023-04-04T19:29:00.055Z,99307.00
2023-04-04T19:31:30.580Z,99305.72
2023-04-04T19:33:57.233Z,99306.41
2023-04-04T19:36:24.902Z,99309.81
2023-04-04T19:38:54.676Z,99302.69
2023-04-04T19:41:34.476Z,99302.94
2023-04-04T19:44:01.668Z,99300.28
2023-04-04T19:46:32.038Z,99294.03
2023-04-04T19:49:00.281Z,99302.41
2023-04-04T19:51:28.047Z,99299.63
2023-04-04T19:53:56.480Z,99301.91
2023-04-04T19:56:25.301Z,99306.16
2023-04-04T19:59:06.854Z,99300.84
2023-04-04T20:01:44.771Z,99295.59
2023-04-04T20:04:22.778Z,99297.91
2023-04-04T20:06:50.053Z,99303.00
2023-04-04T20:09:34.982Z,99303.06
2023-04-04T20:12:02.136Z,99296.78
2023-04-04T20:14:29.160Z,99299.16
2023-04-04T20:16:56.310Z,99295.66
2023-04-04T20:19:26.624Z,99298.44
2023-04-04T20:21:53.638Z,99301.28
2023-04-04T20:24:21.810Z,99304.00
2023-04-04T20:26:56.886Z,99307.22
2023-04-04T20:29:28.274Z,99308.72
2023-04-04T20:32:18.877Z,99307.53
2023-04-04T20:34:50.781Z,99303.09
2023-04-04T20:37:35.056Z,99310.63
2023-04-04T20:40:21.593Z,99305.44
2023-04-04T20:42:48.841Z,99310.75
2023-04-04T20:45:31.968Z,99312.53
2023-04-04T20:48:00.636Z,99309.00
2023-04-04T20:50:27.552Z,99302.81
2023-04-04T20:53:05.135Z,99302.81
2023-04-04T20:55:34.142Z,99309.78
2023-04-04T20:58:25.592Z,99306.28
2023-04-04T21:00:52.336Z,99305.13
2023-04-04T21:03:24.860Z,99309.28
2023-04-04T21:05:58.367Z,99311.75
2023-04-04T21:08:51.307Z,99308.00
2023-04-04T21:11:29.052Z,99302.97
2023-04-04T21:13:57.078Z,99306.34
2023-04-04T21:16:26.577Z,99308.22
2023-04-04T21:19:01.082Z,99314.91
2023-04-04T21:21:28.691Z,99303.78
2023-04-04T21:23:57.637Z,99303.22
2023-04-04T21:26:35.109Z,99310.44
2023-04-04T21:29:03.469Z,99297.97
2023-04-04T21:31:36.271Z,99301.88
2023-04-04T21:34:09.070Z,99300.56
2023-04-04T21:36:35.699Z,99301.00
2023-04-04T21:39:09.842Z,99290.47
2023-04-04T21:41:36.505Z,99303.41
2023-04-04T21:44:05.577Z,99296.72
2023-04-04T21:46:34.516Z,99302.84
2023-04-04T21:49:01.787Z,99300.13
2023-04-04T21:51:28.493Z,99294.97
2023-04-04T21:53:56.040Z,99291.34
2023-04-04T21:56:27.489Z,99290.34
2023-04-04T21:58:55.778Z,99292.84
2023-04-04T22:01:22.610Z,99288.53
2023-04-04T22:03:49.478Z,99289.25
2023-04-04T22:06:16.465Z,99287.38
2023-04-04T22:08:43.099Z,99291.78
2023-04-04T22:11:13.707Z,99291.81
2023-04-04T22:13:47.144Z,99289.84
2023-04-04T22:16:18.693Z,99287.84
2023-04-04T22:18:47.577Z,99285.72
2023-04-04T22:21:15.914Z,99288.19
2023-04-04T22:23:43.154Z,99267.72
2023-04-04T22:26:14.047Z,99273.84
2023-04-04T22:28:45.860Z,99272.44
2023-04-04T22:31:12.692Z,99265.75
2023-04-04T22:33:39.336Z,99268.44
2023-04-04T22:36:08.188Z,99266.25
2023-04-04T22:38:34.871Z,99261.78
2023-04-04T22:41:01.477Z,99264.31
2023-04-04T22:43:28.708Z,99265.00
2023-04-04T22:45:55.594Z,99264.22
2023-04-04T22:48:25.087Z,99255.88
2023-04-04T22:50:55.866Z,99262.81
2023-04-04T22:53:26.111Z,99257.19
2023-04-04T22:55:54.090Z,99252.03
2023-04-04T22:58:21.892Z,99255.44
2023-04-04T23:00:48.835Z,99255.25
2023-04-04T23:03:16.005Z,99255.91
2023-04-04T23:05:43.142Z,99258.34
2023-04-04T23:08:09.807Z,99243.78
2023-04-04T23:10:37.090Z,99251.59
2023-04-04T23:13:03.991Z,99248.19
2023-04-04T23:15:32.479Z,99243.78
2023-04-04T23:17:59.217Z,99237.63
2023-04-04T23:20:25.931Z,99237.53
2023-04-04T23:22:53.082Z,99242.56
2023-04-04T23:25:19.842Z,99234.81
2023-04-04T23:27:46.492Z,99240.03
2023-04-04T23:30:13.280Z,99244.16
2023-04-04T23:32:40.044Z,99238.69
2023-04-04T23:35:06.912Z,99243.84
2023-04-04T23:37:33.534Z,99245.34
2023-04-04T23:40:00.160Z,99239.97
2023-04-04T23:42:26.753Z,99243.16
2023-04-04T23:44:53.338Z,99243.25
2023-04-04T23:47:21.049Z,99243.25
2023-04-04T23:49:47.595Z,99231.84
2023-04-04T23:52:14.395Z,99233.53
2023-04-04T23:54:41.108Z,99231.84
2023-04-04T23:57:07.931Z,99232.59
2023-04-04T23:59:34.568Z,99230.97
